createdAt,value
2023-05-20T00:01:12.863Z,99088.73
2023-05-20T00:04:15.242Z,99087.85
2023-05-20T00:07:17.210Z,99084.55
2023-05-20T00:10:18.924Z,99073.74
2023-05-20T00:13:20.684Z,99077.83
2023-05-20T00:16:22.490Z,99077.36
2023-05-20T00:19:24.359Z,99081.92
2023-05-20T00:22:26.140Z,99086.89
2023-05-20T00:25:28.030Z,99079.56
2023-05-20T00:28:30.120Z,99086.27
2023-05-20T00:31:31.908Z,99081.21
2023-05-20T00:34:33.712Z,99082.25
2023-05-20T00:37:35.494Z,99079.58
2023-05-20T00:40:37.354Z,99081.64
2023-05-20T00:43:39.117Z,99079.98
2023-05-20T00:46:41.012Z,99075.72
2023-05-20T00:49:50.359Z,99073.34
2023-05-20T00:52:54.834Z,99072.63
2023-05-20T00:55:56.726Z,99074.41
2023-05-20T00:58:58.519Z,99071.97
2023-05-20T01:02:01.237Z,99075.36
2023-05-20T01:05:03.245Z,99075.45
2023-05-20T01:08:05.113Z,99079.55
2023-05-20T01:11:10.932Z,99072.48
2023-05-20T01:14:17.238Z,99070.02
2023-05-20T01:17:20.415Z,99071.69
2023-05-20T01:20:22.320Z,99067.59
2023-05-20T01:23:32.036Z,99068.23
2023-05-20T01:26:37.726Z,99060.27
2023-05-20T01:29:41.607Z,99054.14
2023-05-20T01:32:47.952Z,99051.70
2023-05-20T01:35:49.775Z,99059.17
2023-05-20T01:38:53.728Z,99057.52
2023-05-20T01:41:56.116Z,99060.05
2023-05-20T01:44:58.967Z,99054.13
2023-05-20T01:48:02.184Z,99053.19
2023-05-20T01:51:04.062Z,99051.08
2023-05-20T01:54:05.756Z,99050.83
2023-05-20T01:57:07.548Z,99057.52
2023-05-20T02:00:10.312Z,99057.27
2023-05-20T02:03:19.423Z,99058.30
2023-05-20T02:06:21.255Z,99052.71
2023-05-20T02:09:23.049Z,99054.27
2023-05-20T02:12:27.238Z,99059.48
2023-05-20T02:15:29.095Z,99058.23
2023-05-20T02:18:32.120Z,99055.46
2023-05-20T02:21:34.701Z,99054.27
2023-05-20T02:24:36.509Z,99059.77
2023-05-20T02:27:40.036Z,99061.66
2023-05-20T02:30:41.729Z,99059.55
2023-05-20T02:33:44.292Z,99058.53
2023-05-20T02:36:46.205Z,99065.54
2023-05-20T02:39:48.066Z,99067.51
2023-05-20T02:42:50.025Z,99067.65
2023-05-20T02:45:51.857Z,99068.73
2023-05-20T02:48:53.613Z,99073.55
2023-05-20T02:51:55.865Z,99071.98
2023-05-20T02:54:58.047Z,99075.90
2023-05-20T02:58:00.370Z,99073.92
2023-05-20T03:01:02.829Z,99067.77
2023-05-20T03:04:04.955Z,99067.06
2023-05-20T03:07:09.554Z,99065.94
2023-05-20T03:10:11.371Z,99065.70
2023-05-20T03:13:14.705Z,99066.19
2023-05-20T03:16:16.667Z,99073.98
2023-05-20T03:19:19.220Z,99078.85
2023-05-20T03:22:21.161Z,99076.25
2023-05-20T03:25:24.561Z,99076.09
2023-05-20T03:28:26.337Z,99079.48
2023-05-20T03:31:28.896Z,99085.00
2023-05-20T03:34:30.695Z,99081.00
2023-05-20T03:37:32.447Z,99083.52
2023-05-20T03:40:34.224Z,99085.98
2023-05-20T03:43:35.974Z,99087.54
2023-05-20T03:46:37.859Z,99085.50
2023-05-20T03:49:40.601Z,99084.64
2023-05-20T03:52:42.319Z,99085.67
2023-05-20T03:55:44.277Z,99089.14
2023-05-20T03:58:47.108Z,99090.55
2023-05-20T04:01:48.932Z,99090.79
2023-05-20T04:04:57.061Z,99085.76
2023-05-20T04:07:59.856Z,99083.30
2023-05-20T04:11:02.098Z,99082.70
2023-05-20T04:14:03.925Z,99077.41
2023-05-20T04:17:05.739Z,99072.61
2023-05-20T04:20:08.097Z,99075.91
2023-05-20T04:23:10.723Z,99078.42
2023-05-20T04:26:12.689Z,99077.12
2023-05-20T04:29:15.520Z,99079.70
2023-05-20T04:32:18.831Z,99084.84
2023-05-20T04:35:21.033Z,99084.77
2023-05-20T04:38:29.588Z,99079.58
2023-05-20T04:41:31.627Z,99079.50
2023-05-20T04:44:33.849Z,99081.47
2023-05-20T04:47:38.069Z,99085.73
2023-05-20T04:50:41.265Z,99081.71
2023-05-20T04:53:46.031Z,99089.44
2023-05-20T04:56:47.992Z,99092.67
2023-05-20T04:59:49.746Z,99090.23
2023-05-20T05:02:51.624Z,99088.84
2023-05-20T05:05:57.712Z,99097.66
2023-05-20T05:08:59.625Z,99094.23
2023-05-20T05:12:02.187Z,99093.30
2023-05-20T05:15:04.623Z,99096.23
2023-05-20T05:18:06.527Z,99099.72
2023-05-20T05:21:08.762Z,99093.52
2023-05-20T05:24:10.998Z,99095.02
2023-05-20T05:27:13.001Z,99098.58
2023-05-20T05:30:14.761Z,99100.26
2023-05-20T05:33:16.990Z,99100.52
2023-05-20T05:36:19.014Z,99097.94
2023-05-20T05:39:21.119Z,99093.61
2023-05-20T05:42:22.978Z,99090.81
2023-05-20T05:45:24.950Z,99092.05
2023-05-20T05:48:26.768Z,99090.40
2023-05-20T05:51:28.667Z,99090.34
2023-05-20T05:54:30.616Z,99085.95
2023-05-20T05:57:32.527Z,99080.36
2023-05-20T06:00:34.430Z,99077.94
2023-05-20T06:03:36.743Z,99075.12
2023-05-20T06:06:38.552Z,99072.52
2023-05-20T06:09:40.299Z,99073.00
2023-05-20T06:12:42.815Z,99072.60
2023-05-20T06:15:45.639Z,99071.98
2023-05-20T06:18:49.729Z,99073.80
2023-05-20T06:21:51.558Z,99077.27
2023-05-20T06:24:56.076Z,99076.80
2023-05-20T06:27:57.897Z,99075.54
2023-05-20T06:31:00.225Z,99074.44
2023-05-20T06:34:04.991Z,99075.61
2023-05-20T06:37:06.845Z,99081.14
2023-05-20T06:40:09.358Z,99079.17
2023-05-20T06:43:11.631Z,99075.30
2023-05-20T06:46:28.391Z,99079.72
2023-05-20T06:49:35.260Z,99079.64
2023-05-20T06:52:37.162Z,99077.69
2023-05-20T06:55:39.172Z,99073.20
2023-05-20T06:58:41.901Z,99071.30
2023-05-20T07:01:44.085Z,99071.17
2023-05-20T07:04:46.857Z,99071.49
2023-05-20T07:07:48.831Z,99064.80
2023-05-20T07:10:50.942Z,99061.52
2023-05-20T07:13:55.830Z,99057.73
2023-05-20T07:16:59.344Z,99057.66
2023-05-20T07:20:03.626Z,99059.34
2023-05-20T07:23:05.676Z,99050.59
2023-05-20T07:26:14.623Z,99052.71
2023-05-20T07:29:16.450Z,99050.83
2023-05-20T07:32:19.470Z,99050.91
2023-05-20T07:35:21.229Z,99048.95
2023-05-20T07:38:23.027Z,99047.05
2023-05-20T07:41:34.606Z,99047.69
2023-05-20T07:44:36.564Z,99049.09
2023-05-20T07:47:39.476Z,99046.81
2023-05-20T07:50:41.265Z,99049.20
2023-05-20T07:53:43.311Z,99053.23
2023-05-20T07:56:45.719Z,99052.84
2023-05-20T07:59:48.029Z,99045.89
2023-05-20T08:02:50.733Z,99044.45
2023-05-20T08:05:56.963Z,99043.27
2023-05-20T08:08:59.519Z,99038.20
2023-05-20T08:12:05.519Z,99035.44
2023-05-20T08:15:07.578Z,99032.58
2023-05-20T08:18:10.361Z,99026.48
2023-05-20T08:21:13.371Z,99019.49
2023-05-20T08:24:15.396Z,99020.44
2023-05-20T08:27:17.111Z,99013.39
2023-05-20T08:30:19.116Z,99011.95
2023-05-20T08:33:21.994Z,99005.12
2023-05-20T08:36:24.067Z,98997.16
2023-05-20T08:39:26.642Z,99000.02
2023-05-20T08:42:31.020Z,99001.85
2023-05-20T08:45:37.368Z,99008.86
2023-05-20T08:48:41.869Z,99011.68
2023-05-20T08:51:45.594Z,99016.23
2023-05-20T08:54:49.229Z,99022.15
2023-05-20T08:57:51.341Z,99020.09
2023-05-20T09:00:53.041Z,99021.43
2023-05-20T09:03:54.831Z,99020.88
2023-05-20T09:06:56.595Z,99025.77
2023-05-20T09:09:58.361Z,99029.41
2023-05-20T09:13:02.126Z,99031.05
2023-05-20T09:16:04.300Z,99030.27
2023-05-20T09:19:06.916Z,99029.61
2023-05-20T09:22:09.222Z,99025.71
2023-05-20T09:25:12.690Z,99029.98
2023-05-20T09:28:14.377Z,99024.42
2023-05-20T09:31:16.525Z,99015.05
2023-05-20T09:34:20.012Z,99016.70
2023-05-20T09:37:22.107Z,99010.61
2023-05-20T09:40:28.275Z,99008.98
2023-05-20T09:43:30.819Z,99010.05
2023-05-20T09:46:33.892Z,99003.95
2023-05-20T09:49:37.720Z,99004.19
2023-05-20T09:52:39.503Z,99002.41
2023-05-20T09:55:41.970Z,99005.02
2023-05-20T09:58:45.254Z,98999.11
2023-05-20T10:01:49.773Z,98994.95
2023-05-20T10:04:54.033Z,98994.52
2023-05-20T10:08:11.230Z,98994.42
2023-05-20T10:11:48.127Z,98993.59
2023-05-20T10:15:23.596Z,98996.21
2023-05-20T10:18:40.506Z,98994.91
2023-05-20T10:21:43.731Z,98994.98
2023-05-20T10:24:45.608Z,98987.66
2023-05-20T10:27:47.965Z,98981.33
2023-05-20T10:30:50.526Z,98974.29
2023-05-20T10:33:53.321Z,98976.91
2023-05-20T10:36:55.232Z,98974.41
2023-05-20T10:40:10.993Z,98972.08
2023-05-20T10:43:13.974Z,98971.95
2023-05-20T10:46:31.836Z,98971.77
2023-05-20T10:49:47.759Z,98971.47
2023-05-20T10:52:49.677Z,98971.15
2023-05-20T10:55:52.801Z,98963.08
2023-05-20T10:58:55.451Z,98963.41
2023-05-20T11:01:57.483Z,98961.05
2023-05-20T11:05:00.282Z,98954.34
2023-05-20T11:08:08.539Z,98949.89
2023-05-20T11:11:22.342Z,98951.52
2023-05-20T11:14:24.384Z,98949.41
2023-05-20T11:17:26.191Z,98941.55
2023-05-20T11:20:28.295Z,98934.67
2023-05-20T11:23:30.326Z,98929.52
2023-05-20T11:26:32.732Z,98931.66
2023-05-20T11:29:34.752Z,98929.17
2023-05-20T11:32:36.696Z,98926.34
2023-05-20T11:35:51.297Z,98922.98
2023-05-20T11:38:53.063Z,98923.52
2023-05-20T11:41:55.130Z,98925.90
2023-05-20T11:45:01.221Z,98926.83
2023-05-20T11:48:05.286Z,98921.09
2023-05-20T11:51:07.992Z,98911.60
2023-05-20T11:54:10.095Z,98909.16
2023-05-20T11:57:11.730Z,98902.22
2023-05-20T12:00:13.587Z,98900.87
2023-05-20T12:03:15.999Z,98896.73
2023-05-20T12:06:17.829Z,98899.52
2023-05-20T12:09:19.570Z,98899.08
2023-05-20T12:12:21.365Z,98898.27
2023-05-20T12:15:25.527Z,98900.08
2023-05-20T12:18:27.326Z,98896.63
2023-05-20T12:21:30.639Z,98895.61
2023-05-20T12:24:32.391Z,98888.71
2023-05-20T12:27:34.153Z,98885.95
2023-05-20T12:30:36.177Z,98881.93
2023-05-20T12:33:38.053Z,98873.92
2023-05-20T12:36:39.885Z,98874.95
2023-05-20T12:39:41.602Z,98862.85
2023-05-20T12:42:43.997Z,98861.77
2023-05-20T12:45:46.306Z,98858.59
2023-05-20T12:48:48.230Z,98856.15
2023-05-20T12:51:50.051Z,98864.04
2023-05-20T12:54:53.541Z,98864.09
2023-05-20T12:57:55.746Z,98861.09
2023-05-20T13:00:57.567Z,98853.27
2023-05-20T13:03:59.348Z,98855.33
2023-05-20T13:07:01.570Z,98853.39
2023-05-20T13:10:03.847Z,98852.16
2023-05-20T13:13:05.677Z,98847.55
2023-05-20T13:16:07.489Z,98847.01
2023-05-20T13:19:09.290Z,98844.84
2023-05-20T13:22:11.410Z,98835.62
2023-05-20T13:25:13.253Z,98837.33
2023-05-20T13:28:18.228Z,98838.45
2023-05-20T13:31:20.139Z,98842.06
2023-05-20T13:34:21.862Z,98838.02
2023-05-20T13:37:23.605Z,98832.61
2023-05-20T13:40:25.466Z,98829.89
2023-05-20T13:43:28.034Z,98821.50
2023-05-20T13:46:29.861Z,98821.67
2023-05-20T13:49:31.646Z,98816.67
2023-05-20T13:52:33.527Z,98814.98
2023-05-20T13:55:35.851Z,98811.86
2023-05-20T13:58:38.168Z,98809.23
2023-05-20T14:01:44.292Z,98810.24
2023-05-20T14:04:46.455Z,98807.59
2023-05-20T14:07:48.523Z,98802.74
2023-05-20T14:10:54.151Z,98798.88
2023-05-20T14:13:55.932Z,98795.66
2023-05-20T14:16:58.005Z,98793.36
2023-05-20T14:20:00.129Z,98788.28
2023-05-20T14:23:01.956Z,98786.02
2023-05-20T14:26:03.743Z,98779.92
2023-05-20T14:29:05.725Z,98774.81
2023-05-20T14:32:08.399Z,98770.42
2023-05-20T14:35:10.403Z,98767.03
2023-05-20T14:38:12.083Z,98764.18
2023-05-20T14:41:13.774Z,98765.90
2023-05-20T14:44:15.485Z,98764.10
2023-05-20T14:47:21.410Z,98764.92
2023-05-20T14:50:23.201Z,98762.66
2023-05-20T14:53:25.022Z,98762.79
2023-05-20T14:56:26.796Z,98758.22
2023-05-20T14:59:28.578Z,98752.20
2023-05-20T15:02:30.642Z,98753.95
2023-05-20T15:05:32.564Z,98754.95
2023-05-20T15:08:34.302Z,98751.75
2023-05-20T15:11:36.030Z,98754.42
2023-05-20T15:14:37.977Z,98750.39
2023-05-20T15:17:39.924Z,98749.20
2023-05-20T15:20:41.920Z,98744.23
2023-05-20T15:23:43.834Z,98738.80
2023-05-20T15:26:46.059Z,98730.80
2023-05-20T15:29:48.113Z,98728.67
2023-05-20T15:32:50.066Z,98724.27
2023-05-20T15:35:51.788Z,98726.51
2023-05-20T15:38:53.626Z,98724.61
2023-05-20T15:41:55.458Z,98721.80
2023-05-20T15:44:57.392Z,98719.76
2023-05-20T15:47:59.636Z,98719.83
2023-05-20T15:51:01.417Z,98723.38
2023-05-20T15:54:03.102Z,98724.63
2023-05-20T15:57:05.189Z,98721.59
2023-05-20T16:00:09.848Z,98715.48
2023-05-20T16:03:11.783Z,98717.84
2023-05-20T16:06:13.901Z,98719.94
2023-05-20T16:09:15.908Z,98722.26
2023-05-20T16:12:18.612Z,98725.20
2023-05-20T16:15:20.425Z,98722.95
2023-05-20T16:18:23.015Z,98720.16
2023-05-20T16:21:25.525Z,98721.26
2023-05-20T16:24:27.238Z,98716.94
2023-05-20T16:27:29.089Z,98716.34
2023-05-20T16:30:30.994Z,98720.58
2023-05-20T16:33:32.751Z,98722.14
2023-05-20T16:36:34.505Z,98719.45
2023-05-20T16:39:36.253Z,98717.84
2023-05-20T16:42:39.135Z,98720.99
2023-05-20T16:45:40.983Z,98716.45
2023-05-20T16:48:42.767Z,98713.79
2023-05-20T16:51:44.712Z,98713.55
2023-05-20T16:54:46.498Z,98714.84
2023-05-20T16:57:49.895Z,98721.50
2023-05-20T17:00:51.769Z,98726.14
2023-05-20T17:03:53.606Z,98731.02
2023-05-20T17:06:56.256Z,98732.73
2023-05-20T17:09:57.993Z,98734.91
2023-05-20T17:13:01.077Z,98739.77
2023-05-20T17:16:03.078Z,98736.35
2023-05-20T17:19:04.838Z,98737.33
2023-05-20T17:22:06.823Z,98734.56
2023-05-20T17:25:08.838Z,98738.96
2023-05-20T17:28:10.688Z,98736.30
2023-05-20T17:31:13.096Z,98736.02
2023-05-20T17:34:14.867Z,98735.26
2023-05-20T17:37:16.686Z,98736.73
2023-05-20T17:40:20.144Z,98729.42
2023-05-20T17:43:24.624Z,98732.11
2023-05-20T17:46:26.655Z,98730.38
2023-05-20T17:49:28.452Z,98726.88
2023-05-20T17:52:30.364Z,98725.82
2023-05-20T17:55:35.550Z,98723.94
2023-05-20T17:58:37.437Z,98727.68
2023-05-20T18:01:39.315Z,98734.52
2023-05-20T18:04:41.112Z,98735.17
2023-05-20T18:07:43.770Z,98735.86
2023-05-20T18:10:46.278Z,98735.64
2023-05-20T18:13:48.361Z,98734.93
2023-05-20T18:16:50.282Z,98736.75
2023-05-20T18:19:52.068Z,98736.54
2023-05-20T18:22:57.767Z,98737.98
2023-05-20T18:25:59.522Z,98738.73
2023-05-20T18:29:01.252Z,98733.77
2023-05-20T18:32:03.211Z,98730.37
2023-05-20T18:35:06.740Z,98738.58
2023-05-20T18:38:08.623Z,98739.51
2023-05-20T18:41:10.556Z,98744.02
2023-05-20T18:44:13.242Z,98750.61
2023-05-20T18:47:16.511Z,98751.66
2023-05-20T18:50:21.208Z,98755.52
2023-05-20T18:53:23.065Z,98759.35
2023-05-20T18:56:25.897Z,98763.88
2023-05-20T18:59:27.621Z,98764.73
2023-05-20T19:02:29.399Z,98765.98
2023-05-20T19:05:31.344Z,98762.92
2023-05-20T19:08:33.256Z,98758.89
2023-05-20T19:11:35.293Z,98758.73
2023-05-20T19:14:37.033Z,98755.09
2023-05-20T19:17:38.984Z,98757.02
2023-05-20T19:20:40.804Z,98750.86
2023-05-20T19:23:42.712Z,98751.92
2023-05-20T19:26:44.964Z,98750.17
2023-05-20T19:29:46.636Z,98748.48
2023-05-20T19:32:48.508Z,98747.98
2023-05-20T19:35:50.624Z,98750.30
2023-05-20T19:38:52.323Z,98748.29
2023-05-20T19:41:54.385Z,98750.25
2023-05-20T19:49:28.848Z,98737.94
2023-05-20T19:52:31.512Z,98736.33
2023-05-20T19:55:35.284Z,98734.85
2023-05-20T19:58:37.424Z,98736.31
2023-05-20T20:01:39.196Z,98735.79
2023-05-20T20:04:44.009Z,98731.86
2023-05-20T20:07:45.748Z,98733.09
2023-05-20T20:10:48.550Z,98737.16
2023-05-20T20:13:53.123Z,98740.62
2023-05-20T20:16:54.975Z,98742.86
2023-05-20T20:19:57.362Z,98741.84
2023-05-20T20:22:59.099Z,98742.73
2023-05-20T20:26:01.423Z,98741.71
2023-05-20T20:29:03.202Z,98743.02
2023-05-20T20:32:05.378Z,98748.47
2023-05-20T20:35:07.887Z,98745.48
2023-05-20T20:38:09.763Z,98749.67
2023-05-20T20:41:17.476Z,98750.85
2023-05-20T20:44:22.260Z,98752.17
2023-05-20T20:47:28.574Z,98754.21
2023-05-20T20:50:31.185Z,98753.41
2023-05-20T20:53:32.916Z,98756.25
2023-05-20T20:56:38.925Z,98758.46
2023-05-20T20:59:46.898Z,98757.03
2023-05-20T21:02:48.730Z,98756.23
2023-05-20T21:05:51.202Z,98752.63
2023-05-20T21:08:57.467Z,98749.66
2023-05-20T21:11:59.833Z,98753.39
2023-05-20T21:15:01.693Z,98753.15
2023-05-20T21:18:03.513Z,98754.73
2023-05-20T21:21:09.381Z,98758.68
2023-05-20T21:24:11.094Z,98754.98
2023-05-20T21:27:13.455Z,98758.34
2023-05-20T21:30:16.695Z,98762.35
2023-05-20T21:33:18.875Z,98758.81
2023-05-20T21:36:20.700Z,98760.90
2023-05-20T21:39:22.589Z,98760.86
2023-05-20T21:42:24.397Z,98759.94
2023-05-20T21:45:26.106Z,98750.48
2023-05-20T21:48:27.827Z,98754.09
2023-05-20T21:51:30.814Z,98755.56
2023-05-20T21:54:32.562Z,98758.08
2023-05-20T21:57:34.628Z,98755.09
2023-05-20T22:00:36.389Z,98755.22
2023-05-20T22:03:39.209Z,98752.58
2023-05-20T22:06:41.057Z,98754.77
2023-05-20T22:09:42.788Z,98755.60
2023-05-20T22:12:45.115Z,98753.49
2023-05-20T22:15:46.784Z,98751.27
2023-05-20T22:18:49.044Z,98750.41
2023-05-20T22:21:51.303Z,98744.98
2023-05-20T22:24:53.332Z,98743.97
2023-05-20T22:27:55.179Z,98748.19
2023-05-20T22:30:57.258Z,98747.89
2023-05-20T22:33:59.278Z,98748.88
2023-05-20T22:37:02.452Z,98745.65
2023-05-20T22:40:04.791Z,98744.02
2023-05-20T22:43:06.706Z,98740.69
2023-05-20T22:46:08.699Z,98746.00
2023-05-20T22:49:12.203Z,98739.44
2023-05-20T22:52:14.183Z,98735.94
2023-05-20T22:55:15.999Z,98732.52
2023-05-20T22:58:18.114Z,98728.46
2023-05-20T23:01:20.972Z,98730.73
2023-05-20T23:04:22.779Z,98731.14
2023-05-20T23:07:24.527Z,98731.05
2023-05-20T23:10:26.405Z,98733.12
2023-05-20T23:13:28.243Z,98736.51
2023-05-20T23:16:31.082Z,98729.47
2023-05-20T23:19:33.053Z,98728.91
2023-05-20T23:22:34.768Z,98726.19
2023-05-20T23:25:36.798Z,98725.16
2023-05-20T23:28:38.792Z,98722.48
2023-05-20T23:31:40.747Z,98717.11
2023-05-20T23:34:42.937Z,98717.50
2023-05-20T23:37:45.421Z,98717.67
2023-05-20T23:40:48.161Z,98718.55
2023-05-20T23:43:50.142Z,98715.00
2023-05-20T23:46:53.082Z,98710.73
2023-05-20T23:49:59.502Z,98706.74
2023-05-20T23:53:01.212Z,98706.27
2023-05-20T23:56:03.595Z,98706.57
2023-05-20T23:59:06.728Z,98708.23
